createdAt,value
2022-07-25T00:07:03.933Z,0.00
2022-07-25T00:22:04.524Z,0.00
2022-07-25T00:37:04.653Z,0.00
2022-07-25T00:52:05.273Z,0.00
2022-07-25T01:07:06.506Z,0.00
2022-07-25T01:22:07.600Z,0.00
2022-07-25T01:37:08.758Z,0.00
2022-07-25T01:52:09.898Z,0.00
2022-07-25T02:07:10.996Z,0.00
2022-07-25T02:22:12.763Z,0.00
2022-07-25T02:37:13.445Z,0.00
2022-07-25T02:52:13.569Z,0.00
2022-07-25T03:07:14.216Z,5.62
2022-07-25T03:22:15.341Z,11.25
2022-07-25T03:37:16.541Z,33.75
2022-07-25T03:52:17.671Z,45.00
2022-07-25T04:07:18.843Z,73.12
2022-07-25T04:22:21.650Z,129.38
2022-07-25T04:37:22.826Z,196.88
2022-07-25T04:52:23.489Z,213.75
2022-07-25T05:07:23.649Z,270.00
2022-07-25T05:22:28.221Z,286.88
2022-07-25T05:37:29.462Z,303.75
2022-07-25T05:52:30.553Z,320.62
2022-07-25T06:07:31.703Z,331.88
2022-07-25T06:22:32.878Z,348.75
2022-07-25T06:37:34.020Z,360.00
2022-07-25T06:52:35.327Z,365.62
2022-07-25T07:07:36.335Z,382.50
2022-07-25T07:22:38.774Z,393.75
2022-07-25T07:37:43.457Z,405.00
2022-07-25T07:52:44.739Z,421.88
2022-07-25T08:07:45.883Z,438.75
2022-07-25T08:22:46.463Z,450.00
2022-07-25T08:37:47.068Z,500.62
2022-07-25T08:52:48.226Z,511.88
2022-07-25T09:07:49.537Z,534.38
2022-07-25T09:22:50.787Z,742.50
2022-07-25T09:37:51.884Z,1018.12
2022-07-25T09:52:53.092Z,1282.50
2022-07-25T10:07:54.351Z,601.88
2022-07-25T10:22:57.066Z,686.25
2022-07-25T10:37:58.659Z,686.25
2022-07-25T10:52:59.818Z,686.25
2022-07-25T11:23:09.187Z,961.88
2022-07-25T11:38:10.414Z,3043.12
2022-07-25T11:53:11.567Z,2835.00
2022-07-25T12:08:12.706Z,753.75
2022-07-25T12:23:13.910Z,1625.62
2022-07-25T12:38:15.063Z,2058.75
2022-07-25T12:53:16.058Z,2053.12
2022-07-25T13:08:17.242Z,1051.88
2022-07-25T13:23:20.929Z,1175.62
2022-07-25T13:38:22.497Z,1147.50
2022-07-25T13:53:26.719Z,2154.38
2022-07-25T14:08:28.352Z,2345.62
2022-07-25T14:23:30.245Z,551.25
2022-07-25T14:38:31.066Z,286.88
2022-07-25T14:53:32.171Z,849.38
2022-07-25T15:08:33.389Z,815.62
2022-07-25T15:23:39.664Z,1558.12
2022-07-25T15:38:40.832Z,1833.75
2022-07-25T15:53:42.065Z,191.25
2022-07-25T16:08:43.139Z,129.38
2022-07-25T16:23:45.891Z,33.75
2022-07-25T16:38:45.923Z,33.75
2022-07-25T16:53:46.721Z,39.38
2022-07-25T17:08:48.013Z,50.62
2022-07-25T17:23:49.518Z,45.00
2022-07-25T17:38:50.493Z,67.50
2022-07-25T17:53:51.771Z,56.25
2022-07-25T18:08:53.907Z,84.38
2022-07-25T18:23:55.487Z,73.12
2022-07-25T18:38:58.541Z,28.12
2022-07-25T18:54:01.091Z,11.25
2022-07-25T19:09:03.003Z,0.00
2022-07-25T19:24:04.945Z,0.00
2022-07-25T19:39:06.062Z,0.00
2022-07-25T19:54:07.860Z,0.00
2022-07-25T20:09:09.965Z,0.00
2022-07-25T20:24:12.022Z,0.00
2022-07-25T20:39:12.637Z,0.00
2022-07-25T20:54:14.410Z,0.00
2022-07-25T21:09:15.656Z,0.00
2022-07-25T21:24:16.357Z,0.00
2022-07-25T21:39:17.043Z,0.00
2022-07-25T21:54:17.778Z,0.00
2022-07-25T22:09:18.384Z,0.00
2022-07-25T22:24:19.589Z,0.00
2022-07-25T22:39:20.329Z,0.00
2022-07-25T22:54:20.960Z,0.00
2022-07-25T23:09:22.179Z,0.00
2022-07-25T23:24:23.383Z,0.00
2022-07-25T23:39:24.514Z,0.00
2022-07-25T23:54:25.658Z,0.00
